Latest Weather Observations for Cooma Airport

IDN60901

Issued at 11:51 pm EDT Friday 14 December 2018 (issued every 10 minutes, with the page automatically refreshed every 10 minutes)

About weather observations | Map of Canberra area stations | Latest observations for Canberra area | Other Formats
Station Details ID: 070217 Name: COOMA AIRPORT AWS Lat: -36.29 Lon: 148.97 Height: 930.0 m
Data from the previous 72 hours. | See also: Recent months at Cooma Airport
Date/Time
EDT
Temp
°C
App
Temp
°C
Dew
Point
°C
Rel
Hum
%
Delta-T
°C
Wind Press
QNH
hPa
Press
MSL
hPa
Rain since
9am
mm
Dir  Spd
km/h
Gust
km/h
Spd
kts
Gust
kts
14/11:30pm 14.5 13.8 14.3 99 0.1 ENE 11 19 6 10 1009.0 1005.5 11.8
14/11:19pm 14.6 13.9 14.4 99 0.1 ENE 11 17 6 9 1009.4 1005.9 11.8
14/11:00pm 14.7 14.4 14.5 99 0.1 NNE 9 13 5 7 1009.4 1005.9 11.2
14/10:51pm 14.8 14.5 14.5 98 0.2 N 9 11 5 6 1009.3 1005.8 10.6
14/10:30pm 15.0 13.9 14.2 95 0.5 N 13 19 7 10 1009.4 1005.9 10.0
14/10:00pm 15.2 12.9 14.1 93 0.7 NNE 19 26 10 14 1009.8 1006.3 10.0
14/09:30pm 15.3 12.0 15.1 99 0.1 ESE 26 35 14 19 1007.9 1004.4 9.8
14/09:00pm 14.1 13.5 13.6 97 0.3 N 9 11 5 6 1009.4 1005.9 9.4
14/08:30pm 14.0 13.0 13.4 96 0.3 N 11 17 6 9 1008.9 1005.4 9.2
14/08:00pm 13.7 13.0 13.2 97 0.3 NNE 9 15 5 8 1008.8 1005.3 9.2
14/07:30pm 13.9 10.4 12.3 90 0.9 E 22 30 12 16 1008.1 1004.6 9.2
14/07:00pm 14.0 11.6 12.7 92 0.7 NE 17 22 9 12 1008.9 1005.4 9.0
14/06:39pm 14.1 11.3 12.7 91 0.8 ENE 19 24 10 13 1008.4 1004.9 8.2
14/06:30pm 13.8 10.8 12.4 91 0.8 NNE 20 35 11 19 1008.4 1004.9 8.0
14/06:25pm 13.8 8.3 11.8 88 1.1 NNE 32 50 17 27 1008.1 1004.6 8.0
14/06:16pm 13.8 7.6 11.3 85 1.4 NNE 35 50 19 27 1008.0 1004.5 7.2
14/06:00pm 17.4 13.5 10.8 65 3.7 NNE 22 37 12 20 1007.8 1004.3 6.8
14/05:30pm 18.7 16.5 15.0 79 2.3 NNE 20 24 11 13 1007.6 1004.0 6.8
14/05:00pm 18.6 16.4 14.9 79 2.3 NE 20 26 11 14 1006.8 1003.3 6.8
14/04:30pm 18.6 16.7 14.1 75 2.7 NE 17 20 9 11 1006.0 1002.5 6.8
14/04:00pm 18.6 16.8 14.5 77 2.5 NE 17 22 9 12 1006.5 1002.9 6.8
14/03:30pm 18.0 16.2 15.4 85 1.6 NE 19 22 10 12 1006.6 1003.0 6.8
14/03:00pm 18.4 16.2 16.0 86 1.5 NE 22 30 12 16 1006.5 1002.9 6.8
14/02:30pm 18.1 15.2 17.1 94 0.6 NE 28 35 15 19 1006.8 1003.3 6.8
14/02:00pm 18.0 14.4 16.2 89 1.1 NE 30 41 16 22 1006.6 1003.0 6.0
14/01:30pm 18.2 17.2 17.9 98 0.2 ENE 20 30 11 16 1006.1 1002.6 5.8
14/01:29pm 18.1 16.9 17.6 97 0.3 ENE 20 30 11 16 1006.1 1002.6 5.8
14/01:00pm 17.1 14.3 15.4 90 1.0 ENE 24 30 13 16 1006.3 1002.7 2.4
14/12:59pm 17.1 14.3 15.3 89 1.1 ENE 24 30 13 16 1006.4 1002.8 1.6
14/12:30pm 18.3 16.2 15.2 82 1.9 NE 20 32 11 17 1006.8 1003.3 0.0
14/12:00pm 18.8 15.9 15.1 79 2.3 NE 24 30 13 16 1006.4 1002.8 0.0
14/11:30am 18.6 15.6 14.7 78 2.4 NE 24 35 13 19 1005.9 1002.4 0.0
14/11:00am 18.5 15.2 15.0 80 2.1 NE 26 33 14 18 1005.9 1002.4 0.0
14/10:30am 18.0 15.4 14.9 82 1.9 NE 22 28 12 15 1006.0 1002.5 0.0
14/10:00am 17.5 15.6 15.7 89 1.1 NE 20 26 11 14 1005.9 1002.4 0.0
14/09:57am 17.3 15.3 15.6 90 1.0 NE 20 26 11 14 1005.8 1002.3 0.0
14/09:30am 16.6 14.1 15.1 91 0.9 NNE 22 30 12 16 1005.9 1002.4 0.0
14/09:26am 16.5 14.1 15.5 94 0.6 NE 22 30 12 16 1005.9 1002.4 0.0
14/09:22am 16.6 14.5 16.1 97 0.3 NNE 22 28 12 15 1005.9 1002.4 0.0
14/09:00am 15.5 13.4 15.3 99 0.1 NNE 20 30 11 16 1006.0 1002.5 26.6
14/08:30am 14.9 13.3 14.9 100 0.0 NNE 17 22 9 12 1005.7 1002.2 26.6
14/08:00am 14.1 12.6 14.1 100 0.0 NE 15 20 8 11 1005.5 1001.9 26.6
14/07:49am 14.1 12.9 14.1 100 0.0 NE 13 19 7 10 1005.5 1001.9 26.6
14/07:36am 13.9 12.7 13.9 100 0.0 NE 13 15 7 8 1005.3 1001.7 26.6
14/07:30am 13.5 12.1 13.5 100 0.0 NNE 13 17 7 9 1005.3 1001.7 26.6
14/07:00am 13.2 12.5 13.2 100 0.0 NE 9 11 5 6 1004.7 1001.2 26.6
14/06:52am 13.3 12.6 13.3 100 0.0 NE 9 11 5 6 1004.6 1001.0 26.6
14/06:35am 13.1 12.7 13.1 100 0.0 NE 7 9 4 5 1004.4 1000.8 26.6
14/06:30am 13.1 12.7 13.1 100 0.0 NE 7 9 4 5 1004.2 1000.6 26.4
14/06:19am 13.0 12.6 13.0 100 0.0 NNE 7 11 4 6 1004.2 1000.6 26.4
14/06:18am 13.0 12.6 13.0 100 0.0 NNE 7 11 4 6 1004.2 1000.6 26.4
14/06:00am 13.0 12.2 13.0 100 0.0 NE 9 13 5 7 1004.2 1000.6 26.2
14/05:55am 13.0 11.9 13.0 100 0.0 NE 11 15 6 8 1004.3 1000.7 25.8
14/05:30am 13.0 12.2 13.0 100 0.0 NE 9 11 5 6 1004.0 1000.4 25.0
14/05:28am 13.0 12.2 13.0 100 0.0 ENE 9 11 5 6 1003.8 1000.3 25.0
14/05:04am 12.9 11.7 12.9 100 0.0 N 11 19 6 10 1003.8 1000.3 24.2
14/05:00am 12.9 11.0 12.9 100 0.0 N 15 22 8 12 1004.0 1000.4 23.8
14/04:48am 12.9 10.6 12.9 100 0.0 N 17 19 9 10 1004.1 1000.5 23.4
14/04:30am 12.8 11.6 12.8 100 0.0 NNE 11 15 6 8 1003.5 999.9 23.0
14/04:20am 13.0 10.3 13.0 100 0.0 NE 19 24 10 13 1003.6 1000.0 21.8
14/04:00am 12.8 11.2 12.8 100 0.0 NNE 13 17 7 9 1002.9 999.3 21.4
14/03:56am 12.8 11.2 12.8 100 0.0 NNE 13 17 7 9 1003.1 999.5 21.4
14/03:30am 12.8 12.0 12.8 100 0.0 ENE 9 13 5 7 1003.2 999.6 21.4
14/03:00am 12.7 12.2 12.7 100 0.0 ENE 7 13 4 7 1003.3 999.7 21.4
14/02:30am 12.6 12.2 12.4 99 0.1 NE 6 9 3 5 1003.2 999.6 21.4
14/02:00am 12.8 12.5 12.6 99 0.1 NNW 6 9 3 5 1003.4 999.8 21.4
14/01:30am 12.7 11.8 12.7 100 0.0 ENE 9 11 5 6 1003.4 999.8 21.4
14/01:00am 12.5 10.8 12.5 100 0.0 NNE 13 17 7 9 1004.5 1000.9 21.4
14/12:30am 11.8 12.4 11.8 100 0.0 CALM 0 7 0 4 1004.0 1000.4 21.4
14/12:00am 11.6 11.3 11.4 99 0.1 N 4 9 2 5 1003.6 1000.0 21.4
 
Date/Time
EDT
Temp
°C
App
Temp
°C
Dew
Point
°C
Rel
Hum
%
Delta-T
°C
Wind Press
QNH
hPa
Press
MSL
hPa
Rain since
9am
mm
Dir  Spd
km/h
Gust
km/h
Spd
kts
Gust
kts
13/11:30pm 11.6 10.9 11.4 99 0.1 NE 6 9 3 5 1003.7 1000.1 21.2
13/11:00pm 12.4 11.8 12.4 100 0.0 NNW 7 11 4 6 1003.4 999.8 21.2
13/10:30pm 12.5 11.5 12.3 99 0.1 NNW 9 11 5 6 1003.7 1000.1 21.2
13/10:00pm 12.7 12.2 12.5 99 0.1 NNW 7 11 4 6 1003.8 1000.3 21.2
13/09:30pm 13.3 12.2 13.1 99 0.1 NNW 11 13 6 7 1003.7 1000.1 21.2
13/09:00pm 13.6 13.7 12.7 94 0.5 NW 4 7 2 4 1003.0 999.4 21.2
13/08:44pm 13.6 12.1 13.0 96 0.3 SE 13 22 7 12 1002.8 999.1 21.2
13/08:30pm 13.7 9.1 13.5 99 0.1 SSE 30 37 16 20 1001.9 998.3 21.2
13/08:25pm 13.8 10.4 13.6 99 0.1 SSE 24 33 13 18 1002.8 999.1 20.8
13/08:00pm 14.1 14.2 13.9 99 0.1 SW 6 9 3 5 1004.9 1001.4 17.6
13/07:30pm 14.1 14.0 13.9 99 0.1 WSW 7 11 4 6 1004.8 1001.3 14.6
13/07:00pm 14.2 12.2 14.0 99 0.1 S 17 24 9 13 1004.2 1000.6 9.8
13/06:32pm 15.2 13.3 12.9 86 1.3 W 15 24 8 13 1003.3 999.7 4.6
13/06:30pm 15.3 12.8 12.4 83 1.7 W 17 24 9 13 1003.3 999.7 4.2
13/06:00pm 17.7 14.2 10.1 61 4.3 W 19 39 10 21 1001.4 997.8 3.2
13/05:30pm 21.2 19.0 14.4 65 4.1 NE 19 22 10 12 1000.5 996.8 3.2
13/05:00pm 21.6 19.3 14.0 62 4.6 NE 19 22 10 12 1000.5 996.8 3.2
13/04:30pm 21.7 19.3 13.9 61 4.7 NE 19 24 10 13 1000.2 996.6 3.2
13/04:00pm 21.8 19.0 14.4 63 4.5 NE 22 28 12 15 1000.1 996.5 3.2
13/03:30pm 22.4 19.8 15.0 63 4.6 NNE 22 30 12 16 1000.7 997.0 3.2
13/03:00pm 22.2 19.1 14.6 62 4.7 NE 24 32 13 17 1001.0 997.4 3.2
13/02:30pm 21.9 18.8 14.5 63 4.5 NE 24 33 13 18 1000.6 996.9 3.2
13/02:00pm 21.8 20.0 15.9 69 3.7 NNE 20 28 11 15 1001.3 997.7 3.2
13/01:30pm 21.5 18.2 15.1 67 3.9 NE 26 39 14 21 1001.7 998.0 3.2
13/01:00pm 20.6 17.4 15.2 71 3.3 NE 26 33 14 18 1002.0 998.4 3.0
13/12:30pm 20.0 16.1 15.6 76 2.7 NE 30 39 16 21 1002.4 998.8 3.0
13/12:12pm 19.7 16.2 15.6 77 2.5 NNE 28 37 15 20 1002.6 999.0 3.0
13/12:00pm 19.2 16.0 16.4 84 1.8 NNE 28 33 15 18 1003.0 999.4 3.0
13/11:36am 17.9 15.5 16.4 91 0.9 NE 24 33 13 18 1003.0 999.4 3.0
13/11:30am 18.1 16.0 17.1 94 0.6 NNE 24 32 13 17 1003.0 999.4 3.0
13/11:00am 16.6 14.3 16.6 100 0.0 NNE 24 30 13 16 1003.2 999.6 3.0
13/10:44am 16.3 13.9 16.3 100 0.0 NNE 24 28 13 15 1003.3 999.7 2.8
13/10:30am 15.7 13.4 15.7 100 0.0 NNE 22 28 12 15 1003.4 999.8 2.8
13/10:16am 15.4 13.0 15.4 100 0.0 NNE 22 30 12 16 1003.7 1000.1 2.0
13/10:05am 15.6 12.4 15.4 99 0.1 NNE 26 32 14 17 1003.7 1000.1 0.6
13/10:00am 15.9 12.4 15.6 98 0.2 NNE 28 33 15 18 1003.7 1000.1 0.2
13/09:30am 16.5 12.9 16.3 99 0.1 NNE 30 37 16 20 1003.8 1000.3 0.0
13/09:00am 16.0 12.7 16.0 100 0.0 NE 28 33 15 18 1004.1 1000.5 3.0
13/08:30am 15.5 11.2 15.5 100 0.0 NE 32 39 17 21 1004.5 1000.9 2.8
13/08:00am 15.3 11.3 15.3 100 0.0 NE 30 35 16 19 1004.6 1001.0 2.8
13/07:41am 15.0 12.1 15.0 100 0.0 NE 24 30 13 16 1005.1 1001.5 2.8
13/07:30am 14.8 12.2 14.8 100 0.0 NE 22 30 12 16 1005.1 1001.5 2.6
13/07:23am 14.7 12.4 14.7 100 0.0 NE 20 28 11 15 1005.1 1001.5 2.6
13/07:13am 14.6 12.3 14.6 100 0.0 NNE 20 28 11 15 1005.2 1001.6 2.6
13/07:00am 14.5 12.1 14.5 100 0.0 NNE 20 26 11 14 1005.3 1001.7 2.0
13/06:51am 14.5 12.1 14.5 100 0.0 NNE 20 26 11 14 1005.5 1001.9 1.8
13/06:46am 14.5 11.8 14.5 100 0.0 NNE 22 28 12 15 1005.6 1002.0 1.4
13/06:34am 14.5 12.1 14.5 100 0.0 NE 20 26 11 14 1005.5 1001.9 1.2
13/06:30am 14.5 12.1 14.5 100 0.0 NE 20 26 11 14 1005.5 1001.9 1.2
13/06:12am 14.5 11.8 14.5 100 0.0 NE 22 30 12 16 1005.5 1001.9 0.6
13/06:00am 14.6 12.2 14.4 99 0.1 NE 20 26 11 14 1005.7 1002.2 0.2
13/05:30am 14.8 12.6 14.3 97 0.3 NE 19 24 10 13 1005.9 1002.4 0.2
13/05:00am 15.4 11.6 13.6 89 1.1 NE 26 35 14 19 1006.3 1002.7 0.2
13/04:30am 15.4 12.0 13.6 89 1.1 NE 24 33 13 18 1006.4 1002.8 0.2
13/04:00am 15.1 11.9 13.0 87 1.2 NE 22 28 12 15 1006.8 1003.3 0.2
13/03:58am 15.1 11.9 13.0 87 1.2 NE 22 28 12 15 1006.8 1003.3 0.2
13/03:30am 14.8 10.6 12.5 86 1.3 NNE 26 32 14 17 1007.1 1003.6 0.2
13/03:21am 14.8 11.0 12.3 85 1.4 NNE 24 30 13 16 1007.1 1003.6 0.2
13/03:00am 14.5 11.5 12.5 88 1.1 NNE 20 26 11 14 1007.4 1003.8 0.2
13/02:30am 14.3 11.4 12.9 91 0.8 NE 20 26 11 14 1007.4 1003.8 0.2
13/02:00am 14.4 12.2 13.3 93 0.6 NE 17 20 9 11 1007.7 1004.2 0.2
13/01:30am 14.7 12.0 13.6 93 0.6 NE 20 26 11 14 1008.1 1004.6 0.2
13/01:00am 15.2 12.9 14.2 94 0.6 NNE 19 24 10 13 1008.7 1005.2 0.2
13/12:30am 14.8 12.6 14.3 97 0.3 NE 19 20 10 11 1009.2 1005.7 0.2
13/12:00am 14.7 12.0 14.5 99 0.1 NE 22 28 12 15 1009.5 1006.1 0.2
 
Date/Time
EDT
Temp
°C
App
Temp
°C
Dew
Point
°C
Rel
Hum
%
Delta-T
°C
Wind Press
QNH
hPa
Press
MSL
hPa
Rain since
9am
mm
Dir  Spd
km/h
Gust
km/h
Spd
kts
Gust
kts
12/11:30pm 14.8 12.5 14.6 99 0.1 NE 20 26 11 14 1010.0 1006.5 0.2
12/11:00pm 15.1 12.8 14.6 97 0.3 NE 20 26 11 14 1010.5 1007.1 0.2
12/10:30pm 15.2 13.1 14.6 96 0.4 NE 19 24 10 13 1010.6 1007.2 0.2
12/10:00pm 15.4 13.0 14.3 93 0.7 NE 20 24 11 13 1011.1 1007.6 0.2
12/09:30pm 15.7 13.1 13.9 89 1.1 NNE 20 24 11 13 1011.0 1007.5 0.2
12/09:00pm 16.5 13.1 13.8 84 1.6 ENE 24 33 13 18 1010.3 1006.8 0.2
12/08:30pm 17.3 14.3 13.6 79 2.2 ENE 22 32 12 17 1010.3 1006.8 0.2
12/08:00pm 18.5 15.7 12.7 69 3.4 NE 19 24 10 13 1010.7 1007.3 0.2
12/07:30pm 19.4 15.1 10.9 58 4.8 NE 24 32 13 17 1010.5 1007.1 0.2
12/07:00pm 20.2 15.0 11.7 58 4.9 ENE 30 37 16 20 1010.5 1007.1 0.2
12/06:30pm 22.7 18.3 8.8 41 7.7 NNE 22 30 12 16 1010.1 1006.6 0.2
12/06:00pm 23.2 17.4 8.1 38 8.4 N 28 35 15 19 1009.9 1006.4 0.2
12/05:30pm 23.4 17.8 7.1 35 8.9 N 26 35 14 19 1010.2 1006.7 0.0
12/05:00pm 21.4 15.9 7.6 41 7.5 N 26 35 14 19 1010.7 1007.3 0.0
12/04:30pm 21.6 16.4 10.1 48 6.5 NNW 28 39 15 21 1011.4 1007.9 0.0
12/04:00pm 19.3 14.6 12.1 63 4.2 NNW 28 37 15 20 1012.1 1008.6 0.0
12/03:49pm 20.3 14.6 11.2 56 5.2 N 32 46 17 25 1011.6 1008.2 0.0
12/03:30pm 23.9 18.7 5.3 30 9.8 NNE 22 28 12 15 1011.7 1008.3 0.0
12/03:00pm 24.3 19.5 5.6 30 10.0 NNE 20 32 11 17 1012.0 1008.5 0.0
12/02:30pm 24.3 19.7 6.6 32 9.6 NNE 20 32 11 17 1012.3 1008.8 0.0
12/02:00pm 26.6 22.5 8.6 32 10.2 NE 20 33 11 18 1012.6 1009.2 0.0
12/01:30pm 25.9 22.0 9.3 35 9.5 NE 20 32 11 17 1013.2 1009.7 0.0
12/01:00pm 23.9 20.4 10.2 42 7.9 NE 19 28 10 15 1013.9 1010.5 0.0
12/12:30pm 22.3 18.8 10.8 48 6.6 NE 20 30 11 16 1014.5 1011.1 0.0
12/12:00pm 22.0 18.9 12.3 54 5.7 NE 20 30 11 16 1015.1 1011.7 0.0
12/11:30am 21.5 18.5 12.1 55 5.5 NE 19 28 10 15 1015.3 1012.0 0.0
12/11:00am 21.2 18.8 12.6 58 5.1 NE 17 28 9 15 1015.8 1012.4 0.0
12/10:30am 19.1 16.0 11.7 62 4.3 NNE 19 26 10 14 1016.2 1012.9 0.0
12/10:00am 18.3 15.3 12.1 67 3.6 N 19 24 10 13 1016.8 1013.4 0.0
12/09:30am 17.8 14.2 12.0 69 3.3 NNE 22 28 12 15 1017.1 1013.7 0.0
12/09:00am 16.3 13.2 12.1 76 2.4 NNE 20 26 11 14 1017.3 1014.0 0.6
12/08:30am 16.2 12.6 12.0 76 2.4 NNE 22 30 12 16 1017.3 1014.0 0.6
12/08:14am 15.0 11.8 11.8 81 1.8 NE 20 28 11 15 1017.2 1013.9 0.6
12/08:00am 14.8 11.6 11.9 83 1.6 NE 20 30 11 16 1017.3 1014.0 0.6
12/07:30am 13.8 10.6 11.8 88 1.1 NNE 20 26 11 14 1017.3 1014.0 0.6
12/07:00am 13.9 11.5 12.6 92 0.7 NNE 17 22 9 12 1017.2 1013.9 0.6
12/06:30am 13.4 11.0 12.6 95 0.5 NNE 17 22 9 12 1017.1 1013.7 0.6
12/06:00am 13.0 10.6 12.5 97 0.3 NNE 17 22 9 12 1016.9 1013.5 0.6
12/05:30am 13.0 11.0 12.7 98 0.2 NE 15 20 8 11 1016.9 1013.5 0.6
12/05:00am 12.9 10.5 12.7 99 0.1 NE 17 20 9 11 1016.9 1013.5 0.6
12/04:30am 13.1 11.2 12.9 99 0.1 NE 15 17 8 9 1017.1 1013.7 0.6
12/04:00am 13.2 12.1 13.0 99 0.1 NE 11 15 6 8 1017.1 1013.7 0.6
12/03:30am 12.2 10.8 12.2 100 0.0 NNE 11 13 6 7 1017.3 1014.0 0.6
12/03:28am 12.0 10.5 11.8 99 0.1 NNE 11 13 6 7 1017.3 1014.0 0.6
12/03:20am 11.9 10.0 11.7 99 0.1 NNE 13 15 7 8 1017.3 1014.0 0.6
12/03:00am 12.5 11.1 12.3 99 0.1 NNE 11 13 6 7 1017.4 1014.1 0.6
12/02:30am 13.2 11.7 13.0 99 0.1 NNE 13 17 7 9 1017.9 1014.5 0.6
12/02:00am 13.1 10.8 12.9 99 0.1 NE 17 20 9 11 1018.0 1014.6 0.6
12/01:30am 13.1 10.8 12.9 99 0.1 NE 17 19 9 10 1018.3 1015.0 0.6
12/01:00am 12.8 10.4 12.6 99 0.1 NE 17 20 9 11 1018.6 1015.3 0.6
12/12:30am 13.1 11.2 12.9 99 0.1 NE 15 19 8 10 1018.7 1015.4 0.6
12/12:00am 12.9 10.9 12.7 99 0.1 NE 15 19 8 10 1019.2 1015.9 0.6

Latest Capital City Observations: Canberra | Sydney | Melbourne | Brisbane | Adelaide | Perth | Hobart | Darwin

Other Formats:

Comma delimited format used in spreadsheet applications
http://www.bom.gov.au/fwo/IDN60903/IDN60903.94921.axf

JavaScript Object Notation format (JSON) in row-major order
http://www.bom.gov.au/fwo/IDN60903/IDN60903.94921.json